Time;durP1;ratioP1;P1;durP2;ratioP2;P2;SDS_P1;SDS_P2;PMS_P1;PMS_P2;Temp;Humidity;BMP_temperature;BMP_pressure;BME280_temperature;BME280_humidity;BME280_pressure;Samples;Min_cycle;Max_cycle;Signal;HPM_P1;HPM_P2
2022/08/07 00:00:58;;;;;;;;;3.75;3.75;;;;;22.77;32.58;101841.38;2104727;27;47317;-64
2022/08/07 00:01:59;;;;;;;;;4.00;3.25;;;;;22.77;32.27;101835.94;2104652;27;47921;-64
2022/08/07 00:02:59;;;;;;;;;2.25;2.25;;;;;22.77;32.80;101844.06;2104604;27;47511;-64
2022/08/07 00:04:00;;;;;;;;;3.33;3.33;;;;;22.76;32.49;101840.50;2104181;27;47226;-64
2022/08/07 00:05:00;;;;;;;;;1.33;1.33;;;;;22.74;32.39;101834.28;2112436;27;47590;-64
2022/08/07 00:06:01;;;;;;;;;3.00;3.00;;;;;22.75;32.44;101840.56;2104485;28;47385;-64
2022/08/07 00:07:02;;;;;;;;;5.40;3.00;;;;;22.73;32.47;101839.75;2095710;28;47152;-64
2022/08/07 00:08:03;;;;;;;;;2.50;2.50;;;;;22.72;32.75;101836.19;2095897;28;47612;-65
2022/08/07 00:09:04;;;;;;;;;3.20;3.20;;;;;22.72;32.67;101840.72;2104371;28;47536;-63
2022/08/07 00:10:05;;;;;;;;;3.00;3.00;;;;;22.70;32.75;101835.41;2104553;27;47672;-64
2022/08/07 00:11:06;;;;;;;;;2.00;2.00;;;;;22.67;32.74;101832.88;2103531;28;47028;-65
2022/08/07 00:12:06;;;;;;;;;2.60;2.60;;;;;22.65;32.45;101837.50;2103412;28;47295;-63
2022/08/07 00:13:07;;;;;;;;;6.00;5.00;;;;;22.65;32.56;101842.91;2104930;27;47597;-63
2022/08/07 00:14:07;;;;;;;;;4.25;3.00;;;;;22.63;32.99;101833.13;2104900;27;45930;-63
2022/08/07 00:15:08;;;;;;;;;2.00;2.00;;;;;22.60;33.18;101836.84;2104748;27;47152;-65
2022/08/07 00:16:09;;;;;;;;;3.00;3.00;;;;;22.59;33.00;101837.81;2104773;27;47840;-63
2022/08/07 00:17:09;;;;;;;;;3.00;3.00;;;;;22.55;32.84;101831.69;2104567;27;47983;-63
2022/08/07 00:18:11;;;;;;;;;3.00;3.00;;;;;22.53;33.08;101839.03;2112041;27;47594;-64
2022/08/07 00:19:11;;;;;;;;;3.00;3.00;;;;;22.51;32.96;101835.53;2111927;27;47637;-64
2022/08/07 00:20:11;;;;;;;;;3.00;3.00;;;;;22.48;32.89;101838.38;2104890;27;47773;-65
2022/08/07 00:21:12;;;;;;;;;3.00;2.75;;;;;22.43;33.44;101829.66;2104658;27;47553;-64
2022/08/07 00:22:12;;;;;;;;;3.00;3.00;;;;;22.44;33.48;101834.09;2104656;27;47359;-64
2022/08/07 00:23:13;;;;;;;;;4.50;4.50;;;;;22.41;33.28;101831.56;2104396;27;47322;-64
2022/08/07 00:24:14;;;;;;;;;3.00;2.60;;;;;22.40;32.99;101832.53;2104729;27;47619;-64
2022/08/07 00:25:14;;;;;;;;;3.25;3.25;;;;;22.40;32.95;101832.53;2104543;27;47286;-64
2022/08/07 00:26:15;;;;;;;;;4.00;4.00;;;;;22.40;33.19;101831.66;2104412;28;47146;-63
2022/08/07 00:27:16;;;;;;;;;4.50;4.50;;;;;22.39;33.09;101833.50;2103725;28;47226;-64
2022/08/07 00:28:17;;;;;;;;;5.20;4.60;;;;;22.40;33.37;101831.66;2104977;27;47974;-64
2022/08/07 00:29:18;;;;;;;;;3.75;3.75;;;;;22.38;33.36;101826.34;2104242;27;47418;-66
2022/08/07 00:30:19;;;;;;;;;4.80;4.80;;;;;22.39;33.25;101829.91;2104766;28;47788;-63
2022/08/07 00:31:20;;;;;;;;;4.00;4.00;;;;;22.38;33.17;101826.34;2098425;27;47423;-63
2022/08/07 00:32:20;;;;;;;;;5.00;5.00;;;;;22.35;33.55;101828.31;2099601;28;47606;-65
2022/08/07 00:33:25;;;;;;;;;4.25;4.25;;;;;22.34;33.25;101832.84;2105035;27;47385;-63
2022/08/07 00:34:26;;;;;;;;;3.80;3.80;;;;;22.31;33.63;101828.47;2104545;28;47040;-65
2022/08/07 00:35:27;;;;;;;;;4.00;3.00;;;;;22.31;33.23;101824.91;2103938;28;47790;-64
2022/08/07 00:36:28;;;;;;;;;3.60;3.60;;;;;22.28;33.58;101820.53;2104848;27;47630;-65
2022/08/07 00:37:28;;;;;;;;;3.25;3.25;;;;;22.26;33.93;101821.56;2104518;27;47427;-64
2022/08/07 00:38:29;;;;;;;;;3.50;3.50;;;;;22.27;33.92;101816.09;2104702;27;47243;-64
2022/08/07 00:39:29;;;;;;;;;4.75;4.75;;;;;22.24;33.71;101821.66;2103972;28;47182;-63
2022/08/07 00:40:30;;;;;;;;;4.00;4.00;;;;;22.23;33.73;101819.91;2103665;28;47497;-63
2022/08/07 00:41:32;;;;;;;;;2.80;2.80;;;;;22.23;34.01;101819.91;2104889;27;47193;-65
2022/08/07 00:42:34;;;;;;;;;4.20;4.00;;;;;22.21;33.77;101821.81;2104667;27;47659;-65
2022/08/07 00:43:34;;;;;;;;;4.00;4.00;;;;;22.19;33.61;101812.03;2104447;27;48164;-64
2022/08/07 00:44:36;;;;;;;;;2.50;2.50;;;;;22.18;33.54;101815.69;2104786;27;47253;-65
2022/08/07 00:45:40;;;;;;;;;5.20;5.20;;;;;22.15;33.66;101816.72;2104281;27;47666;-64
2022/08/07 00:46:41;;;;;;;;;3.00;3.00;;;;;22.14;34.30;101817.69;2105147;27;47765;-65
2022/08/07 00:47:41;;;;;;;;;2.00;2.00;;;;;22.12;33.88;101813.31;2104223;28;47216;-65
2022/08/07 00:48:41;;;;;;;;;3.25;3.25;;;;;22.09;34.20;101817.03;2103975;28;47097;-65
2022/08/07 00:49:42;;;;;;;;;3.00;2.00;;;;;22.08;34.00;101819.81;2104732;28;47624;-65
2022/08/07 00:50:42;;;;;;;;;2.75;2.75;;;;;22.04;34.32;101808.28;2104436;27;47088;-65
2022/08/07 00:51:43;;;;;;;;;2.75;2.75;;;;;22.03;34.26;101817.34;2104636;27;47755;-64
2022/08/07 00:52:44;;;;;;;;;4.00;4.00;;;;;22.03;34.28;101820.03;2104480;27;47916;-65
2022/08/07 00:53:44;;;;;;;;;3.50;3.00;;;;;22.01;34.55;101812.00;2104536;27;47398;-63
2022/08/07 00:54:44;;;;;;;;;3.75;3.75;;;;;21.99;33.91;101813.94;2104419;27;47506;-63
2022/08/07 00:55:45;;;;;;;;;3.00;2.33;;;;;22.01;34.47;101819.25;2104905;27;47064;-63
2022/08/07 00:56:46;;;;;;;;;2.25;2.25;;;;;22.00;34.38;101820.22;2104459;27;47455;-64
2022/08/07 00:57:46;;;;;;;;;3.80;3.80;;;;;21.99;34.13;101818.47;2104818;27;47663;-63
2022/08/07 00:58:47;;;;;;;;;3.50;3.50;;;;;21.97;34.78;101815.81;2103869;28;47521;-63
2022/08/07 00:59:47;;;;;;;;;3.00;3.00;;;;;21.94;34.59;101813.28;2104378;28;47395;-64
2022/08/07 01:00:48;;;;;;;;;4.00;3.33;;;;;21.94;34.63;101810.56;2104280;27;47947;-64
2022/08/07 01:01:49;;;;;;;;;2.80;2.80;;;;;21.94;34.28;101813.28;2104514;27;47640;-65
2022/08/07 01:02:51;;;;;;;;;2.00;2.00;;;;;21.93;34.26;101800.72;2104393;27;47580;-64
2022/08/07 01:03:51;;;;;;;;;4.00;4.00;;;;;21.92;34.78;101800.81;2096357;28;47642;-65
2022/08/07 01:04:52;;;;;;;;;2.00;2.00;;;;;21.91;34.93;101805.34;2100780;28;47072;-64
2022/08/07 01:05:54;;;;;;;;;3.50;3.00;;;;;21.91;34.43;101801.75;2104555;27;47137;-65
2022/08/07 01:06:55;;;;;;;;;3.40;3.40;;;;;21.92;34.39;101800.81;2104402;27;47418;-64
2022/08/07 01:07:55;;;;;;;;;4.00;4.00;;;;;21.92;34.87;101800.81;2104359;27;47240;-64
2022/08/07 01:08:57;;;;;;;;;3.00;3.00;;;;;21.92;34.30;101801.66;2104559;27;47603;-63
2022/08/07 01:09:58;;;;;;;;;4.00;4.00;;;;;21.91;34.74;101799.06;2104744;28;48619;-66
2022/08/07 01:10:59;;;;;;;;;3.25;3.25;;;;;21.90;34.39;101800.00;2104054;27;47478;-66
2022/08/07 01:12:00;;;;;;;;;3.00;3.00;;;;;21.91;34.64;101799.06;2103218;28;45911;-64
2022/08/07 01:13:00;;;;;;;;;4.50;4.50;;;;;21.89;34.73;101793.72;2103108;28;47355;-64
2022/08/07 01:14:01;;;;;;;;;3.75;3.75;;;;;21.88;34.92;101796.50;2095468;28;47880;-65
2022/08/07 01:15:02;;;;;;;;;3.50;3.00;;;;;21.87;34.94;101800.19;2087555;28;47078;-64
2022/08/07 01:16:04;;;;;;;;;3.00;3.00;;;;;21.84;34.50;101790.38;2079825;28;48092;-63
2022/08/07 01:17:05;;;;;;;;;3.20;2.80;;;;;21.85;34.77;101794.84;2088734;28;48054;-65
2022/08/07 01:18:05;;;;;;;;;3.75;3.00;;;;;21.85;35.16;101791.25;2097507;28;47063;-65
2022/08/07 01:19:06;;;;;;;;;3.00;3.00;;;;;21.84;34.80;101798.47;2097366;28;47233;-64
2022/08/07 01:20:10;;;;;;;;;2.80;2.80;;;;;21.82;34.64;101799.53;2079544;28;47329;-63
2022/08/07 01:21:12;;;;;;;;;4.00;4.00;;;;;21.81;34.76;101797.78;2065385;28;47853;-66
2022/08/07 01:22:13;;;;;;;;;3.00;3.00;;;;;21.77;34.53;101788.97;2089206;28;48369;-63
2022/08/07 01:23:14;;;;;;;;;5.00;3.75;;;;;21.74;34.65;101787.28;2096464;28;47484;-66
2022/08/07 01:24:16;;;;;;;;;2.40;2.40;;;;;21.75;34.60;101793.56;2097448;28;47442;-65
2022/08/07 01:25:17;;;;;;;;;3.00;3.00;;;;;21.73;34.85;101787.38;2088036;28;47905;-65
2022/08/07 01:26:20;;;;;;;;;3.00;3.00;;;;;21.72;35.05;101789.22;2104533;28;47678;-65
2022/08/07 01:27:21;;;;;;;;;2.00;2.00;;;;;21.69;34.97;101783.94;2105627;27;47911;-64
2022/08/07 01:28:22;;;;;;;;;3.00;3.00;;;;;21.70;35.01;101788.38;2096414;28;48003;-65
2022/08/07 01:29:24;;;;;;;;;3.00;3.00;;;;;21.68;35.27;101787.59;2097220;28;47589;-64
2022/08/07 01:30:25;;;;;;;;;3.75;2.50;;;;;21.67;34.89;101780.44;2096653;28;47272;-64
2022/08/07 01:31:30;;;;;;;;;2.75;2.75;;;;;21.68;35.42;101786.72;2088244;28;47411;-65
2022/08/07 01:32:31;;;;;;;;;3.00;3.00;;;;;21.68;35.34;101786.72;2090384;28;47077;-64
2022/08/07 01:33:32;;;;;;;;;3.00;3.00;;;;;21.67;34.88;101783.16;2096630;28;47990;-64
2022/08/07 01:34:33;;;;;;;;;4.00;4.00;;;;;21.68;35.38;101792.13;2098224;28;47750;-63
2022/08/07 01:35:34;;;;;;;;;2.50;2.50;;;;;21.67;35.22;101784.97;2097983;28;47576;-64
2022/08/07 01:36:35;;;;;;;;;4.00;4.00;;;;;21.65;34.99;101786.88;2096328;28;47470;-64
2022/08/07 01:37:35;;;;;;;;;0.25;0.25;;;;;21.64;35.70;101786.00;2096158;28;46438;-64
2022/08/07 01:38:38;;;;;;;;;3.75;3.25;;;;;21.64;35.45;101788.72;2096230;28;47335;-63
2022/08/07 01:39:38;;;;;;;;;2.80;2.80;;;;;21.65;35.32;101795.00;2096709;28;47207;-64
2022/08/07 01:40:40;;;;;;;;;3.00;3.00;;;;;21.63;35.58;101786.97;2098339;28;47307;-63
2022/08/07 01:41:44;;;;;;;;;1.80;1.80;;;;;21.63;35.31;101792.38;2096693;28;48005;-65
2022/08/07 01:42:45;;;;;;;;;6.20;4.00;;;;;21.62;35.29;101789.75;2096890;28;47624;-64
2022/08/07 01:43:46;;;;;;;;;3.75;3.00;;;;;21.63;35.51;101783.38;2101108;28;47700;-64
2022/08/07 01:44:47;;;;;;;;;1.60;1.60;;;;;21.62;35.80;101785.22;2106009;27;47266;-64
2022/08/07 01:45:47;;;;;;;;;2.25;2.25;;;;;21.61;35.72;101788.00;2105955;27;47543;-64
2022/08/07 01:46:47;;;;;;;;;2.00;2.00;;;;;21.63;35.66;101786.97;2105473;27;47309;-65
2022/08/07 01:47:48;;;;;;;;;2.50;2.50;;;;;21.63;35.35;101783.38;2105991;27;47932;-65
2022/08/07 01:48:48;;;;;;;;;0.00;0.00;;;;;21.62;35.13;101787.03;2105485;27;47430;-64
2022/08/07 01:49:49;;;;;;;;;3.00;2.25;;;;;21.60;35.32;101786.25;2105649;27;47416;-64
2022/08/07 01:50:57;;;;;;;;;3.75;3.75;;;;;21.58;35.66;101789.00;2105778;27;47738;-66
2022/08/07 01:52:01;;;;;;;;;3.00;3.00;;;;;21.58;35.61;101788.13;2104897;28;47344;-64
2022/08/07 01:53:04;;;;;;;;;4.00;3.80;;;;;21.57;35.84;101797.19;2104612;28;47843;-64
2022/08/07 01:54:08;;;;;;;;;4.20;4.20;;;;;21.58;35.91;101796.25;2105731;27;47920;-65
2022/08/07 01:55:10;;;;;;;;;1.60;1.60;;;;;21.55;35.85;101789.16;2105393;27;47533;-63
2022/08/07 01:56:15;;;;;;;;;3.00;3.00;;;;;21.54;35.82;101789.25;2105651;27;47840;-64
2022/08/07 01:57:23;;;;;;;;;4.00;4.00;;;;;21.53;35.82;101788.38;2104896;28;47238;-64
2022/08/07 01:58:30;;;;;;;;;3.00;3.00;;;;;21.52;35.98;101799.25;2104909;28;47508;-65
2022/08/07 01:59:50;;;;;;;;;3.00;3.00;;;;;21.51;36.04;101797.50;2105461;27;47995;-65
2022/08/07 02:00:56;;;;;;;;;4.00;4.00;;;;;21.51;35.68;101800.22;2105951;27;47726;-64
2022/08/07 02:02:07;;;;;;;;;3.20;3.00;;;;;21.48;35.66;101795.84;2105627;27;47987;-65
2022/08/07 02:03:14;;;;;;;;;4.00;3.60;;;;;21.48;36.15;101793.16;2105261;27;47180;-64
2022/08/07 02:04:22;;;;;;;;;2.00;2.00;;;;;21.48;35.56;101793.16;2105815;27;47957;-65
2022/08/07 02:05:35;;;;;;;;;3.00;3.00;;;;;21.45;35.58;101790.56;2111503;27;47532;-64
2022/08/07 02:06:38;;;;;;;;;3.00;3.00;;;;;21.43;35.98;101795.19;2104542;28;47885;-64
2022/08/07 02:07:45;;;;;;;;;4.00;4.00;;;;;21.42;36.06;101790.75;2105225;28;47182;-64
2022/08/07 02:08:48;;;;;;;;;3.00;3.00;;;;;21.41;36.11;101792.56;2105879;27;48277;-64
2022/08/07 02:09:51;;;;;;;;;3.40;3.20;;;;;21.40;36.25;101793.50;2105324;27;47547;-63
2022/08/07 02:10:57;;;;;;;;;4.60;4.60;;;;;21.40;36.37;101793.50;2113453;27;47401;-64
2022/08/07 02:12:15;;;;;;;;;4.80;3.20;;;;;21.40;35.69;101790.81;2112899;27;47076;-65
2022/08/07 02:13:17;;;;;;;;;3.60;3.40;;;;;21.36;36.33;101789.22;2105445;27;47506;-64
2022/08/07 02:14:19;;;;;;;;;4.00;3.00;;;;;21.36;35.84;101800.03;2104926;28;47132;-64
2022/08/07 02:15:23;;;;;;;;;2.20;2.20;;;;;21.36;36.48;101793.75;2104904;28;47330;-63
2022/08/07 02:16:25;;;;;;;;;3.40;3.40;;;;;21.34;35.95;101793.84;2105317;27;47178;-63
2022/08/07 02:17:28;;;;;;;;;3.00;3.00;;;;;21.33;36.42;101794.75;2105513;27;47414;-65
2022/08/07 02:18:32;;;;;;;;;2.20;2.20;;;;;21.33;36.36;101796.59;2105400;27;47772;-65
2022/08/07 02:19:33;;;;;;;;;2.00;2.00;;;;;21.32;36.75;101798.41;2105453;27;47872;-64
2022/08/07 02:20:34;;;;;;;;;3.00;3.00;;;;;21.31;36.10;101798.50;2095707;28;47927;-64
2022/08/07 02:21:37;;;;;;;;;3.25;3.25;;;;;21.29;36.39;101798.56;2095910;28;47216;-64
2022/08/07 02:22:39;;;;;;;;;2.00;2.00;;;;;21.29;36.76;101803.09;2105487;28;48159;-64
2022/08/07 02:23:40;;;;;;;;;4.00;4.00;;;;;21.26;36.47;101798.72;2105628;27;47697;-64
2022/08/07 02:24:43;;;;;;;;;4.80;3.80;;;;;21.24;36.67;101797.91;2105923;27;47660;-66
2022/08/07 02:25:45;;;;;;;;;2.60;2.40;;;;;21.22;36.70;101794.41;2113005;27;48136;-64
2022/08/07 02:26:48;;;;;;;;;3.60;2.20;;;;;21.18;36.39;101790.09;2113189;27;47591;-64
2022/08/07 02:27:49;;;;;;;;;1.40;1.40;;;;;21.17;36.67;101789.22;2104927;27;47777;-62
2022/08/07 02:28:51;;;;;;;;;4.80;4.80;;;;;21.16;36.87;101800.09;2105275;27;47784;-65
2022/08/07 02:29:54;;;;;;;;;3.00;3.00;;;;;21.14;37.04;101793.91;2105426;27;47313;-64
2022/08/07 02:30:57;;;;;;;;;3.60;3.60;;;;;21.10;37.05;101795.88;2105316;27;46281;-64
2022/08/07 02:32:00;;;;;;;;;2.20;2.20;;;;;21.09;36.60;101788.72;2105732;27;47455;-64
2022/08/07 02:33:02;;;;;;;;;3.00;3.00;;;;;21.07;37.06;101796.00;2104573;28;46067;-64
2022/08/07 02:34:04;;;;;;;;;2.60;2.60;;;;;21.07;36.74;101800.53;2104746;28;47242;-64
2022/08/07 02:35:07;;;;;;;;;4.00;2.00;;;;;21.05;37.01;101792.50;2105666;27;46812;-64
2022/08/07 02:36:08;;;;;;;;;4.20;3.80;;;;;21.05;37.04;101791.63;2105886;27;47438;-65
2022/08/07 02:37:10;;;;;;;;;3.60;3.60;;;;;21.04;36.88;101798.84;2105264;27;47950;-64
2022/08/07 02:38:12;;;;;;;;;4.00;4.00;;;;;21.04;37.26;101793.47;2112195;27;47379;-64
2022/08/07 02:39:13;;;;;;;;;2.60;2.60;;;;;21.04;37.16;101797.97;2112391;27;47901;-64
2022/08/07 02:40:14;;;;;;;;;3.00;3.00;;;;;21.05;36.97;101797.03;2105192;27;47128;-65
2022/08/07 02:41:14;;;;;;;;;2.25;2.25;;;;;21.05;36.75;101786.22;2105735;27;47665;-64
2022/08/07 02:42:16;;;;;;;;;2.75;2.75;;;;;21.04;37.00;101796.16;2105188;27;47147;-64
2022/08/07 02:43:17;;;;;;;;;2.20;2.20;;;;;21.04;37.26;101788.06;2105397;27;47747;-62
2022/08/07 02:44:20;;;;;;;;;4.20;3.00;;;;;21.03;37.05;101789.00;2105239;27;47397;-63
2022/08/07 02:45:23;;;;;;;;;1.20;1.20;;;;;21.05;37.45;101788.94;2105232;27;46293;-64
2022/08/07 02:46:25;;;;;;;;;2.40;2.40;;;;;21.04;36.87;101790.75;2105320;27;47456;-64
2022/08/07 02:47:25;;;;;;;;;4.20;4.20;;;;;21.05;37.05;101786.22;2104975;27;48043;-63
2022/08/07 02:48:26;;;;;;;;;3.50;3.50;;;;;21.05;37.25;101786.22;2105254;27;47492;-64
2022/08/07 02:49:27;;;;;;;;;3.50;3.50;;;;;21.05;37.08;101787.09;2104959;28;47768;-64
2022/08/07 02:50:30;;;;;;;;;2.20;2.20;;;;;21.07;37.47;101781.63;2104635;28;47344;-64
2022/08/07 02:51:35;;;;;;;;;3.40;3.40;;;;;21.06;37.32;101786.16;2105345;27;47558;-64
2022/08/07 02:52:43;;;;;;;;;3.80;3.80;;;;;21.05;37.17;101783.53;2105401;27;47981;-62
2022/08/07 02:53:49;;;;;;;;;3.60;2.20;;;;;21.03;37.04;101783.63;2105650;27;46266;-64
2022/08/07 02:54:51;;;;;;;;;2.40;1.20;;;;;21.01;37.12;101793.63;2105227;27;47776;-65
2022/08/07 02:55:55;;;;;;;;;4.80;3.20;;;;;20.98;37.63;101777.56;2105213;27;47907;-65
2022/08/07 02:57:00;;;;;;;;;1.20;1.20;;;;;20.99;37.55;101789.25;2105280;27;47545;-65
2022/08/07 02:58:09;;;;;;;;;2.60;2.60;;;;;20.97;37.41;101781.22;2105229;27;47647;-64
2022/08/07 02:59:15;;;;;;;;;3.00;3.00;;;;;20.98;37.42;101779.41;2104440;28;47369;-64
2022/08/07 03:00:16;;;;;;;;;3.00;3.00;;;;;20.97;37.43;101783.94;2104557;28;45756;-65
2022/08/07 03:01:18;;;;;;;;;3.00;3.00;;;;;20.97;37.76;101774.94;2105047;27;47396;-63
2022/08/07 03:02:20;;;;;;;;;2.40;2.40;;;;;20.97;37.73;101772.25;2105106;27;47578;-63
2022/08/07 03:03:22;;;;;;;;;1.80;1.80;;;;;20.96;37.60;101783.97;2105398;27;47962;-63
2022/08/07 03:04:24;;;;;;;;;3.80;3.80;;;;;20.96;37.50;101773.19;2105154;27;47588;-64
2022/08/07 03:05:26;;;;;;;;;3.00;3.00;;;;;20.95;37.72;101783.09;2105134;27;47257;-63
2022/08/07 03:06:28;;;;;;;;;3.00;3.00;;;;;20.95;37.37;101772.31;2105089;28;47183;-63
2022/08/07 03:07:29;;;;;;;;;2.00;2.00;;;;;20.93;37.43;101767.94;2105542;27;47576;-64
2022/08/07 03:08:30;;;;;;;;;2.00;2.00;;;;;20.92;37.68;101777.84;2104494;28;47161;-64
2022/08/07 03:09:30;;;;;;;;;4.75;4.75;;;;;20.93;37.86;101776.91;2105028;28;47473;-63
2022/08/07 03:10:31;;;;;;;;;4.00;4.00;;;;;20.93;37.94;101778.72;2105452;27;47281;-64
2022/08/07 03:11:34;;;;;;;;;3.00;3.00;;;;;20.94;37.48;101781.34;2112926;27;46068;-65
2022/08/07 03:12:36;;;;;;;;;3.60;2.60;;;;;20.94;37.36;101777.78;2112555;27;47651;-63
2022/08/07 03:13:36;;;;;;;;;4.80;3.60;;;;;20.92;37.49;101777.84;2105320;27;48116;-64
2022/08/07 03:14:38;;;;;;;;;3.25;3.25;;;;;20.90;37.47;101768.97;2105190;27;47227;-63
2022/08/07 03:15:38;;;;;;;;;2.60;2.60;;;;;20.88;38.10;101773.56;2105314;27;47332;-64
2022/08/07 03:16:39;;;;;;;;;4.00;3.00;;;;;20.88;37.74;101770.00;2105637;27;47298;-63
2022/08/07 03:17:41;;;;;;;;;4.00;3.00;;;;;20.88;38.14;101770.88;2104474;28;47095;-65
2022/08/07 03:18:42;;;;;;;;;3.40;3.40;;;;;20.86;37.74;101764.66;2104884;28;47324;-65
2022/08/07 03:19:42;;;;;;;;;4.75;4.75;;;;;20.85;37.57;101773.72;2105239;27;47297;-65
2022/08/07 03:20:44;;;;;;;;;2.25;2.25;;;;;20.84;37.64;101775.53;2104717;27;47458;-64
2022/08/07 03:21:47;;;;;;;;;2.40;2.00;;;;;20.81;37.63;101772.09;2104959;27;48135;-64
2022/08/07 03:22:50;;;;;;;;;2.00;2.00;;;;;20.79;38.08;101782.09;2104824;27;47614;-66
2022/08/07 03:23:55;;;;;;;;;4.40;3.00;;;;;20.77;38.14;101765.97;2105307;27;47537;-64
2022/08/07 03:24:56;;;;;;;;;3.60;3.60;;;;;20.77;37.84;101775.91;2099442;27;47418;-65
2022/08/07 03:25:58;;;;;;;;;3.00;3.00;;;;;20.76;38.20;101777.72;2101872;28;47611;-64
2022/08/07 03:27:02;;;;;;;;;5.00;5.00;;;;;20.76;38.40;101771.44;2105056;27;47784;-64
2022/08/07 03:28:04;;;;;;;;;3.60;3.60;;;;;20.76;37.65;101771.44;2105089;28;48295;-63
2022/08/07 03:29:06;;;;;;;;;4.00;4.00;;;;;20.77;38.46;101770.50;2105021;27;47544;-65
2022/08/07 03:30:07;;;;;;;;;3.00;3.00;;;;;20.77;38.46;101767.81;2096876;28;47956;-64
2022/08/07 03:31:18;;;;;;;;;2.80;2.80;;;;;20.77;37.92;101774.06;2104550;28;47787;-65
2022/08/07 03:32:23;;;;;;;;;2.60;2.60;;;;;20.77;37.97;101765.97;2104794;27;47579;-65
2022/08/07 03:33:24;;;;;;;;;4.80;4.60;;;;;20.75;38.22;101767.88;2104343;28;47419;-65
2022/08/07 03:34:26;;;;;;;;;5.00;5.00;;;;;20.75;38.43;101764.31;2104481;28;47821;-64
2022/08/07 03:35:28;;;;;;;;;4.80;4.80;;;;;20.75;38.56;101769.69;2105305;27;47586;-65
2022/08/07 03:36:30;;;;;;;;;3.60;3.60;;;;;20.75;38.13;101777.78;2104302;28;47177;-65
2022/08/07 03:37:35;;;;;;;;;2.20;2.20;;;;;20.76;38.40;101774.16;2095323;28;47846;-64
2022/08/07 03:38:38;;;;;;;;;3.00;3.00;;;;;20.75;38.11;101773.28;2103368;28;48045;-64
2022/08/07 03:39:39;;;;;;;;;4.40;4.40;;;;;20.74;38.27;101773.34;2104831;27;47769;-64
2022/08/07 03:40:41;;;;;;;;;3.80;3.80;;;;;20.73;38.51;101774.28;2104804;27;48044;-64
2022/08/07 03:41:42;;;;;;;;;3.60;3.60;;;;;20.70;38.05;101778.00;2104627;28;47259;-64
2022/08/07 03:42:43;;;;;;;;;4.00;4.00;;;;;20.67;38.59;101772.75;2104649;28;47743;-63
2022/08/07 03:43:44;;;;;;;;;4.00;4.00;;;;;20.67;38.63;101769.16;2104715;27;48058;-64
2022/08/07 03:44:45;;;;;;;;;4.00;4.00;;;;;20.65;38.77;101777.34;2105053;27;47580;-65
2022/08/07 03:45:46;;;;;;;;;4.20;3.80;;;;;20.64;38.47;101780.13;2105150;27;47514;-63
2022/08/07 03:46:47;;;;;;;;;5.00;4.00;;;;;20.60;38.43;101782.09;2105394;27;47488;-63
2022/08/07 03:47:48;;;;;;;;;3.50;3.50;;;;;20.60;38.48;101784.78;2104857;27;48065;-64
2022/08/07 03:48:49;;;;;;;;;3.00;3.00;;;;;20.59;38.95;101776.78;2104513;27;47799;-64
2022/08/07 03:49:50;;;;;;;;;4.00;4.00;;;;;20.57;38.52;101769.59;2105341;27;47254;-64
2022/08/07 03:50:52;;;;;;;;;3.75;3.75;;;;;20.57;38.72;101779.50;2105202;27;47049;-64
2022/08/07 03:51:54;;;;;;;;;4.00;4.00;;;;;20.57;38.54;101774.13;2105300;27;47439;-64
2022/08/07 03:52:57;;;;;;;;;3.00;3.00;;;;;20.56;38.46;101777.75;2104737;27;47259;-65
2022/08/07 03:53:57;;;;;;;;;5.00;5.00;;;;;20.53;38.95;101778.78;2104529;27;48009;-64
2022/08/07 03:55:00;;;;;;;;;5.00;5.00;;;;;20.53;38.55;101781.47;2104992;27;47446;-64
2022/08/07 03:56:01;;;;;;;;;3.60;3.60;;;;;20.52;38.68;101776.16;2104690;27;48013;-64
2022/08/07 03:57:02;;;;;;;;;3.40;3.40;;;;;20.52;39.03;101771.66;2105134;27;47672;-64
2022/08/07 03:58:03;;;;;;;;;3.80;3.80;;;;;20.50;38.89;101778.94;2104603;27;48025;-64
2022/08/07 03:59:05;;;;;;;;;4.50;4.50;;;;;20.50;39.12;101772.66;2104414;28;47321;-64
2022/08/07 04:00:06;;;;;;;;;5.20;5.20;;;;;20.50;38.98;101775.38;2104106;28;47374;-66
2022/08/07 04:01:09;;;;;;;;;4.00;4.00;;;;;20.51;38.89;101777.13;2104196;28;47410;-63
2022/08/07 04:02:10;;;;;;;;;3.60;3.00;;;;;20.51;38.89;101774.41;2104123;28;47395;-64
2022/08/07 04:03:11;;;;;;;;;3.50;3.50;;;;;20.50;38.72;101773.53;2104778;27;47917;-65
2022/08/07 04:04:14;;;;;;;;;4.25;4.25;;;;;20.52;38.97;101776.16;2112454;27;45969;-64
2022/08/07 04:05:14;;;;;;;;;3.40;3.40;;;;;20.49;38.91;101771.78;2110877;27;47437;-64
2022/08/07 04:06:15;;;;;;;;;4.75;4.75;;;;;20.48;38.95;101774.56;2104504;27;48105;-64
2022/08/07 04:07:18;;;;;;;;;2.00;1.00;;;;;20.46;38.81;101776.47;2104430;28;47466;-65
2022/08/07 04:08:19;;;;;;;;;4.60;4.60;;;;;20.44;39.01;101770.25;2103706;27;47536;-64
2022/08/07 04:09:20;;;;;;;;;3.60;3.60;;;;;20.44;39.22;101770.25;2112641;27;47090;-65
2022/08/07 04:10:21;;;;;;;;;2.20;2.20;;;;;20.43;38.96;101772.06;2104375;28;47805;-65
2022/08/07 04:11:21;;;;;;;;;3.25;3.25;;;;;20.43;39.53;101768.50;2104146;28;47687;-64
2022/08/07 04:12:22;;;;;;;;;3.75;3.75;;;;;20.42;39.18;101772.13;2105158;28;47602;-65
2022/08/07 04:13:24;;;;;;;;;4.75;4.75;;;;;20.43;39.52;101773.88;2104155;28;47378;-65
2022/08/07 04:14:26;;;;;;;;;3.20;3.20;;;;;20.42;39.49;101772.13;2103874;28;47217;-63
2022/08/07 04:15:26;;;;;;;;;4.60;4.60;;;;;20.41;39.28;101776.63;2105202;27;47559;-64
2022/08/07 04:16:28;;;;;;;;;2.75;2.00;;;;;20.41;39.18;101770.34;2104497;27;47588;-64
2022/08/07 04:17:28;;;;;;;;;3.00;3.00;;;;;20.40;39.10;101769.47;2105092;27;47598;-64
2022/08/07 04:18:29;;;;;;;;;4.75;4.00;;;;;20.39;39.42;101766.84;2104470;27;47161;-64
2022/08/07 04:19:30;;;;;;;;;3.00;3.00;;;;;20.41;39.51;101767.66;2105161;27;47561;-65
2022/08/07 04:20:30;;;;;;;;;4.50;4.50;;;;;20.40;39.07;101763.22;2104977;27;47287;-65
2022/08/07 04:21:31;;;;;;;;;3.25;3.25;;;;;20.39;39.06;101773.13;2104512;28;47484;-63
2022/08/07 04:22:32;;;;;;;;;3.50;2.50;;;;;20.39;39.48;101769.56;2104726;27;47975;-65
2022/08/07 04:23:33;;;;;;;;;5.00;4.00;;;;;20.39;39.36;101772.25;2104703;27;48059;-64
2022/08/07 04:24:34;;;;;;;;;4.80;3.40;;;;;20.37;39.21;101769.63;2102638;28;46226;-65
2022/08/07 04:25:37;;;;;;;;;3.50;3.50;;;;;20.36;39.19;101765.19;2104893;27;47510;-65
2022/08/07 04:26:38;;;;;;;;;4.00;4.00;;;;;20.36;39.14;101767.00;2104738;27;46908;-65
2022/08/07 04:27:39;;;;;;;;;3.60;2.80;;;;;20.35;39.52;101767.97;2104702;27;47848;-65
2022/08/07 04:28:40;;;;;;;;;4.00;4.00;;;;;20.35;39.74;101765.25;2104826;27;47749;-64
2022/08/07 04:29:42;;;;;;;;;4.60;4.00;;;;;20.34;39.69;101767.09;2104648;27;47311;-65
2022/08/07 04:30:47;;;;;;;;;2.60;2.60;;;;;20.35;39.34;101765.25;2104477;27;47397;-65
2022/08/07 04:31:48;;;;;;;;;2.00;2.00;;;;;20.35;39.86;101767.97;2104954;27;46420;-64
2022/08/07 04:32:49;;;;;;;;;3.00;3.00;;;;;20.34;39.94;101761.69;2104922;27;47540;-65
2022/08/07 04:33:50;;;;;;;;;3.80;3.00;;;;;20.34;39.87;101766.22;2105222;27;45883;-65
2022/08/07 04:34:51;;;;;;;;;4.75;4.75;;;;;20.33;39.74;101765.34;2104942;27;47612;-64
2022/08/07 04:35:53;;;;;;;;;2.80;2.80;;;;;20.34;39.43;101768.91;2104230;28;47617;-64
2022/08/07 04:36:53;;;;;;;;;3.40;3.40;;;;;20.32;39.89;101763.56;2104473;28;48143;-65
2022/08/07 04:37:54;;;;;;;;;3.50;3.50;;;;;20.30;39.38;101760.06;2104638;27;47708;-64
2022/08/07 04:38:54;;;;;;;;;5.00;5.00;;;;;20.32;39.63;101766.25;2104876;27;47370;-64
2022/08/07 04:39:55;;;;;;;;;2.75;2.50;;;;;20.32;39.37;101766.25;2104668;27;45948;-64
2022/08/07 04:40:55;;;;;;;;;4.00;4.00;;;;;20.33;39.61;101761.72;2103790;28;47651;-64
2022/08/07 04:41:55;;;;;;;;;3.00;3.00;;;;;20.32;39.90;101768.06;2112546;27;47608;-66
2022/08/07 04:42:57;;;;;;;;;6.00;6.00;;;;;20.32;39.52;101765.38;2112596;27;47045;-65
2022/08/07 04:44:00;;;;;;;;;3.00;3.00;;;;;20.32;39.56;101768.06;2104587;27;47478;-64
2022/08/07 04:45:03;;;;;;;;;2.40;2.40;;;;;20.32;39.52;101765.38;2104610;27;47724;-64
2022/08/07 04:46:25;;;;;;;;;3.00;3.00;;;;;20.31;39.97;101769.88;2104802;27;47674;-64
2022/08/07 04:47:51;;;;;;;;;4.20;4.20;;;;;20.29;40.21;101769.97;2104525;27;48027;-65
2022/08/07 04:49:10;;;;;;;;;4.00;4.00;;;;;20.28;40.16;101770.03;2104633;28;46784;-65